Time;durP1;ratioP1;P1;durP2;ratioP2;P2;SDS_P1;SDS_P2;PMS_P1;PMS_P2;Temp;Humidity;BMP_temperature;BMP_pressure;BME280_temperature;BME280_humidity;BME280_pressure;Samples;Min_cycle;Max_cycle;Signal;HPM_P1;HPM_P2
2023/07/24 00:02:24;;;;;;;13.45;9.20;;;17.80;99.90;;;;;;4957551;28;20050;-69
2023/07/24 00:04:50;;;;;;;15.98;9.80;;;17.70;99.90;;;;;;4970696;28;20043;-68
2023/07/24 00:07:15;;;;;;;13.70;9.40;;;17.70;99.90;;;;;;4946363;29;20082;-67
2023/07/24 00:09:41;;;;;;;11.85;9.15;;;17.60;99.90;;;;;;4954947;28;20046;-68
2023/07/24 00:12:07;;;;;;;14.57;9.52;;;17.60;99.90;;;;;;4950190;29;20063;-68
2023/07/24 00:14:33;;;;;;;11.80;8.75;;;17.60;99.90;;;;;;4934455;29;20058;-69
2023/07/24 00:16:58;;;;;;;12.23;9.55;;;17.60;99.90;;;;;;4947098;28;20047;-66
2023/07/24 00:19:24;;;;;;;13.55;10.00;;;17.60;99.90;;;;;;4952926;28;20047;-69
2023/07/24 00:21:49;;;;;;;12.13;9.15;;;17.50;99.90;;;;;;4955661;28;20046;-69
2023/07/24 00:24:15;;;;;;;12.73;9.50;;;17.50;99.90;;;;;;4941416;28;20047;-68
2023/07/24 00:26:40;;;;;;;13.27;9.88;;;17.50;99.90;;;;;;4961790;28;20409;-68
2023/07/24 00:29:06;;;;;;;13.07;9.57;;;17.50;99.90;;;;;;4974136;28;20131;-68
2023/07/24 00:31:32;;;;;;;12.02;9.32;;;17.40;99.90;;;;;;4948317;28;20043;-69
2023/07/24 00:34:00;;;;;;;12.20;9.65;;;17.40;99.90;;;;;;4953951;28;20035;-69
2023/07/24 00:36:26;;;;;;;12.77;8.90;;;17.40;99.90;;;;;;4954346;28;20042;-69
2023/07/24 00:38:51;;;;;;;13.57;9.73;;;17.30;99.90;;;;;;4957273;28;20097;-68
2023/07/24 00:41:17;;;;;;;12.77;9.68;;;17.40;99.90;;;;;;4962318;28;20031;-68
2023/07/24 00:43:42;;;;;;;13.00;10.02;;;17.30;99.90;;;;;;4961502;28;20114;-69
2023/07/24 00:46:10;;;;;;;12.50;9.85;;;17.40;99.90;;;;;;4973930;28;20555;-69
2023/07/24 00:48:35;;;;;;;13.48;9.68;;;17.40;99.90;;;;;;4942113;28;20474;-68
2023/07/24 00:51:02;;;;;;;13.18;9.55;;;17.40;99.90;;;;;;4956974;28;20074;-68
2023/07/24 00:53:27;;;;;;;13.48;8.82;;;17.30;99.90;;;;;;4956685;28;20130;-68
2023/07/24 00:55:53;;;;;;;12.35;9.23;;;17.30;99.90;;;;;;4958793;28;20134;-69
2023/07/24 00:58:19;;;;;;;12.77;8.93;;;17.30;99.90;;;;;;4957344;28;20027;-68
2023/07/24 01:00:45;;;;;;;12.50;8.23;;;17.30;99.90;;;;;;4967098;28;20066;-69
2023/07/24 01:03:12;;;;;;;13.35;8.70;;;17.20;99.90;;;;;;4945339;28;20047;-69
2023/07/24 01:05:38;;;;;;;11.73;8.43;;;17.20;99.90;;;;;;4937277;28;20055;-68
2023/07/24 01:08:04;;;;;;;13.95;8.65;;;17.10;99.90;;;;;;4955782;28;20490;-67
2023/07/24 01:10:30;;;;;;;11.38;8.43;;;17.10;99.90;;;;;;4956350;28;20054;-67
2023/07/24 01:13:06;;;;;;;12.25;8.90;;;17.10;99.90;;;;;;4956866;28;20047;-68
2023/07/24 01:15:45;;;;;;;11.57;8.60;;;17.00;99.90;;;;;;4956365;28;20054;-68
2023/07/24 01:18:12;;;;;;;10.80;8.07;;;17.00;99.90;;;;;;4963141;28;20058;-69
2023/07/24 01:20:42;;;;;;;11.23;8.18;;;16.90;99.90;;;;;;4973219;28;20042;-69
2023/07/24 01:23:22;;;;;;;11.03;8.20;;;16.90;99.90;;;;;;4973678;28;20046;-67
2023/07/24 01:25:59;;;;;;;10.57;7.65;;;16.90;99.90;;;;;;4952435;28;20162;-68
2023/07/24 01:28:25;;;;;;;11.82;8.60;;;16.80;99.90;;;;;;4948076;28;20039;-68
2023/07/24 01:30:51;;;;;;;12.10;8.35;;;16.80;99.90;;;;;;4961598;28;20032;-67
2023/07/24 01:33:17;;;;;;;11.65;8.68;;;16.80;99.90;;;;;;4972155;28;20116;-67
2023/07/24 01:35:43;;;;;;;11.55;8.60;;;16.80;99.90;;;;;;4950601;28;20634;-68
2023/07/24 01:38:13;;;;;;;12.35;7.85;;;16.80;99.90;;;;;;4966941;28;20134;-68
2023/07/24 01:40:42;;;;;;;10.55;7.75;;;16.80;99.90;;;;;;4951201;28;20391;-67
2023/07/24 01:43:08;;;;;;;10.82;7.50;;;16.80;99.90;;;;;;4967224;28;20043;-68
2023/07/24 01:45:35;;;;;;;10.80;7.55;;;16.80;99.90;;;;;;4962298;28;20085;-69
2023/07/24 01:48:02;;;;;;;12.98;8.27;;;16.70;99.90;;;;;;4949086;28;20521;-67
2023/07/24 01:50:27;;;;;;;11.75;7.88;;;16.60;99.90;;;;;;4970516;28;20121;-68
2023/07/24 01:52:53;;;;;;;10.25;7.70;;;16.60;99.90;;;;;;4969190;28;20121;-69
2023/07/24 01:55:18;;;;;;;10.68;7.38;;;16.60;99.90;;;;;;4952799;28;20031;-68
2023/07/24 01:57:44;;;;;;;13.32;8.50;;;16.60;99.90;;;;;;4952936;28;20054;-68
2023/07/24 02:00:10;;;;;;;11.68;8.18;;;16.50;99.90;;;;;;4951725;28;20124;-67
2023/07/24 02:02:36;;;;;;;12.05;7.95;;;16.50;99.90;;;;;;4953715;28;20174;-67
2023/07/24 02:05:01;;;;;;;12.77;8.25;;;16.40;99.90;;;;;;4967928;28;20507;-67
2023/07/24 02:07:27;;;;;;;12.20;7.53;;;16.40;99.90;;;;;;4972450;28;20051;-67
2023/07/24 02:09:52;;;;;;;12.05;7.90;;;16.30;99.90;;;;;;4972622;28;20035;-67
2023/07/24 02:12:18;;;;;;;11.02;7.93;;;16.30;99.90;;;;;;4948575;29;20062;-67
2023/07/24 02:14:43;;;;;;;13.98;8.48;;;16.20;99.90;;;;;;4960395;28;20054;-67
2023/07/24 02:17:09;;;;;;;12.13;8.07;;;16.20;99.90;;;;;;4971868;28;20118;-67
2023/07/24 02:19:35;;;;;;;13.45;8.20;;;16.20;99.90;;;;;;4964369;28;20397;-67
2023/07/24 02:22:00;;;;;;;11.88;8.35;;;16.20;99.90;;;;;;4954719;28;20078;-67
2023/07/24 02:24:26;;;;;;;14.05;7.80;;;16.20;99.90;;;;;;4965915;28;20034;-67
2023/07/24 02:26:51;;;;;;;13.05;8.20;;;16.20;99.90;;;;;;4971140;28;20130;-67
2023/07/24 02:29:17;;;;;;;13.07;8.40;;;16.20;99.90;;;;;;4966183;28;20042;-67
2023/07/24 02:31:42;;;;;;;13.27;8.60;;;16.20;99.90;;;;;;4953209;28;20405;-67
2023/07/24 02:34:08;;;;;;;12.60;8.45;;;16.20;99.90;;;;;;4952981;28;20102;-67
2023/07/24 02:36:34;;;;;;;12.48;7.72;;;16.10;99.90;;;;;;4955759;28;20040;-67
2023/07/24 02:38:59;;;;;;;13.88;7.60;;;16.10;99.90;;;;;;4952484;28;20442;-67
2023/07/24 02:41:25;;;;;;;11.70;8.10;;;16.20;99.90;;;;;;4953217;29;20122;-67
2023/07/24 02:43:50;;;;;;;11.77;8.15;;;16.10;99.90;;;;;;4959878;28;20485;-67
2023/07/24 02:46:16;;;;;;;14.57;8.23;;;16.20;99.90;;;;;;4955788;28;20031;-67
2023/07/24 02:48:42;;;;;;;11.82;8.52;;;16.20;99.90;;;;;;4955213;28;20032;-67
2023/07/24 02:51:07;;;;;;;14.25;7.70;;;16.20;99.90;;;;;;4955245;28;20490;-67
2023/07/24 02:53:33;;;;;;;11.98;8.15;;;16.20;99.90;;;;;;4955851;28;20082;-67
2023/07/24 02:56:00;;;;;;;12.95;7.82;;;16.30;99.90;;;;;;4956012;28;20039;-67
2023/07/24 02:58:26;;;;;;;12.07;7.88;;;16.30;99.90;;;;;;4956712;28;20078;-67
2023/07/24 03:00:51;;;;;;;10.77;7.65;;;16.40;99.90;;;;;;4953389;28;20074;-67
2023/07/24 03:03:17;;;;;;;11.35;8.20;;;16.40;99.90;;;;;;4956464;28;20039;-67
2023/07/24 03:05:43;;;;;;;13.25;8.20;;;16.50;99.90;;;;;;4956362;28;20126;-67
2023/07/24 03:08:08;;;;;;;11.98;7.53;;;16.50;99.90;;;;;;4958372;28;20070;-67
2023/07/24 03:10:34;;;;;;;10.25;7.45;;;16.50;99.90;;;;;;4954661;28;20640;-67
2023/07/24 03:12:59;;;;;;;11.18;7.72;;;16.50;99.90;;;;;;4956097;28;20120;-67
2023/07/24 03:15:25;;;;;;;12.05;6.57;;;16.60;99.90;;;;;;4955374;29;20047;-67
2023/07/24 03:17:51;;;;;;;14.43;6.95;;;16.60;99.90;;;;;;4957665;28;20047;-67
2023/07/24 03:20:18;;;;;;;11.73;6.80;;;16.70;99.90;;;;;;4955868;28;20377;-66
2023/07/24 03:22:45;;;;;;;13.23;7.45;;;16.70;99.90;;;;;;4952438;28;20047;-67
2023/07/24 03:25:11;;;;;;;12.40;7.50;;;16.80;99.90;;;;;;4960998;28;20897;-67
2023/07/24 03:27:36;;;;;;;10.43;7.55;;;16.80;99.90;;;;;;4955673;28;20482;-67
2023/07/24 03:30:03;;;;;;;11.32;7.85;;;16.80;99.90;;;;;;4957692;28;20265;-68
2023/07/24 03:32:29;;;;;;;11.35;7.90;;;16.80;99.90;;;;;;4974585;28;20039;-67
2023/07/24 03:34:54;;;;;;;13.65;8.43;;;16.90;99.90;;;;;;4946497;28;20039;-68
2023/07/24 03:37:20;;;;;;;12.30;8.27;;;16.90;99.90;;;;;;4955510;28;20041;-66
2023/07/24 03:39:45;;;;;;;13.02;8.63;;;16.90;99.90;;;;;;4957317;28;20049;-67
2023/07/24 03:42:14;;;;;;;14.02;8.80;;;16.90;99.90;;;;;;4969312;28;20042;-66
2023/07/24 03:44:40;;;;;;;12.85;8.80;;;16.90;99.90;;;;;;4964921;28;20046;-66
2023/07/24 03:47:06;;;;;;;12.95;8.95;;;17.00;99.90;;;;;;4955098;28;20486;-68
2023/07/24 03:49:32;;;;;;;14.32;8.63;;;17.00;99.90;;;;;;4954924;28;20039;-68
2023/07/24 03:51:57;;;;;;;13.88;8.85;;;16.90;99.90;;;;;;4954119;28;20035;-68
2023/07/24 03:54:23;;;;;;;12.25;8.63;;;16.90;99.90;;;;;;4953664;29;20047;-68
2023/07/24 03:56:49;;;;;;;14.15;9.20;;;16.90;99.90;;;;;;4955440;29;20122;-68
2023/07/24 03:59:14;;;;;;;15.07;9.88;;;16.90;99.90;;;;;;4955007;28;20039;-68
2023/07/24 04:01:40;;;;;;;14.35;10.18;;;16.90;99.90;;;;;;4960989;28;20401;-68
2023/07/24 04:04:05;;;;;;;14.35;10.45;;;16.90;99.90;;;;;;4954550;28;20069;-68
2023/07/24 04:06:31;;;;;;;15.68;10.25;;;16.90;99.90;;;;;;4952899;28;20046;-67
2023/07/24 04:08:56;;;;;;;16.17;10.65;;;16.90;99.90;;;;;;4950002;28;20122;-68
2023/07/24 04:11:22;;;;;;;17.27;10.32;;;16.90;99.90;;;;;;4954644;28;20031;-68
2023/07/24 04:13:48;;;;;;;15.38;10.43;;;16.90;99.90;;;;;;4954492;29;20118;-67
2023/07/24 04:16:13;;;;;;;14.73;10.82;;;16.90;99.90;;;;;;4952474;28;20038;-69
2023/07/24 04:18:39;;;;;;;15.20;10.68;;;16.90;99.90;;;;;;4954687;28;20035;-68
2023/07/24 04:21:04;;;;;;;17.25;11.27;;;16.90;99.90;;;;;;4954848;28;20086;-68
2023/07/24 04:23:30;;;;;;;16.02;10.70;;;16.90;99.90;;;;;;4950239;28;20063;-67
2023/07/24 04:25:56;;;;;;;15.35;11.07;;;16.90;99.90;;;;;;4940610;28;20035;-68
2023/07/24 04:28:21;;;;;;;15.70;10.70;;;16.80;99.90;;;;;;4955595;28;20038;-68
2023/07/24 04:30:47;;;;;;;15.25;11.23;;;16.90;99.90;;;;;;4974159;28;20047;-68
2023/07/24 04:33:12;;;;;;;14.48;10.68;;;16.80;99.90;;;;;;4967073;28;20159;-68
2023/07/24 04:35:38;;;;;;;16.55;11.32;;;16.80;99.90;;;;;;4945754;28;20039;-69
2023/07/24 04:38:04;;;;;;;15.07;11.13;;;16.80;99.90;;;;;;4954017;28;20127;-68
2023/07/24 04:40:29;;;;;;;15.25;10.73;;;16.80;99.90;;;;;;4954998;29;20071;-68
2023/07/24 04:42:55;;;;;;;15.32;10.55;;;16.80;99.90;;;;;;4952101;28;20052;-69
2023/07/24 04:45:20;;;;;;;15.98;10.40;;;16.80;99.90;;;;;;4954271;28;20039;-67
2023/07/24 04:47:46;;;;;;;16.75;11.38;;;16.80;99.90;;;;;;4954534;28;20078;-68
2023/07/24 04:50:12;;;;;;;17.58;11.10;;;16.80;99.90;;;;;;4951602;28;20039;-67
2023/07/24 04:52:37;;;;;;;18.25;10.95;;;16.80;99.90;;;;;;4953654;28;20119;-68
2023/07/24 04:55:03;;;;;;;15.75;10.77;;;16.70;99.90;;;;;;4952660;28;20038;-66
2023/07/24 04:57:29;;;;;;;16.05;11.00;;;16.70;99.90;;;;;;4941118;28;20057;-68
2023/07/24 04:59:54;;;;;;;17.98;10.75;;;16.70;99.90;;;;;;4943402;28;20123;-69
2023/07/24 05:02:20;;;;;;;15.73;10.57;;;16.70;99.90;;;;;;4956111;28;20047;-69
2023/07/24 05:04:45;;;;;;;15.73;10.93;;;16.70;99.90;;;;;;4970810;28;20416;-68
2023/07/24 05:07:11;;;;;;;17.73;10.63;;;16.70;99.90;;;;;;4957291;28;20082;-69
2023/07/24 05:09:37;;;;;;;16.55;10.95;;;16.70;99.90;;;;;;4955470;28;20618;-68
2023/07/24 05:12:02;;;;;;;15.13;11.10;;;16.70;99.90;;;;;;4972623;28;20101;-68
2023/07/24 05:14:28;;;;;;;15.75;11.27;;;16.70;99.90;;;;;;4949901;28;20078;-69
2023/07/24 05:16:53;;;;;;;16.77;11.43;;;16.70;99.90;;;;;;4953551;28;20066;-66
2023/07/24 05:19:19;;;;;;;17.33;11.63;;;16.70;99.90;;;;;;4953470;28;20039;-68
2023/07/24 05:21:45;;;;;;;15.32;10.90;;;16.80;99.90;;;;;;4953444;28;20046;-68
2023/07/24 05:24:10;;;;;;;15.75;10.77;;;16.80;99.90;;;;;;4948931;28;20134;-68
2023/07/24 05:26:36;;;;;;;16.23;10.73;;;16.80;99.90;;;;;;4953722;28;20039;-66
2023/07/24 05:29:01;;;;;;;16.17;10.38;;;16.90;99.90;;;;;;4936872;29;20193;-68
2023/07/24 05:31:27;;;;;;;17.27;11.38;;;16.90;99.90;;;;;;4952835;28;20035;-68
2023/07/24 05:33:52;;;;;;;17.25;11.05;;;16.90;99.90;;;;;;4953203;28;20062;-68
2023/07/24 05:36:18;;;;;;;16.58;11.45;;;16.90;99.90;;;;;;4952052;29;20078;-68
2023/07/24 05:38:44;;;;;;;16.88;11.25;;;17.00;99.90;;;;;;4951304;28;20050;-68
2023/07/24 05:41:09;;;;;;;16.85;11.10;;;17.10;99.90;;;;;;4959521;28;20043;-68
2023/07/24 05:43:35;;;;;;;18.63;11.13;;;17.30;99.90;;;;;;4945455;28;20035;-66
2023/07/24 05:46:00;;;;;;;18.73;11.25;;;17.40;99.90;;;;;;4935921;28;20083;-67
2023/07/24 05:48:26;;;;;;;17.85;10.70;;;17.40;99.90;;;;;;4952577;28;20514;-68
2023/07/24 05:50:52;;;;;;;16.98;11.18;;;17.50;99.90;;;;;;4948487;28;20038;-67
2023/07/24 05:53:21;;;;;;;19.20;10.95;;;17.50;99.90;;;;;;4939134;28;20821;-67
2023/07/24 05:55:46;;;;;;;17.63;11.38;;;17.60;99.90;;;;;;4948893;28;20042;-69
2023/07/24 05:58:12;;;;;;;17.13;10.43;;;17.60;99.90;;;;;;4933695;28;20094;-69
2023/07/24 06:00:38;;;;;;;16.08;10.85;;;17.60;99.90;;;;;;4950991;28;20074;-67
2023/07/24 06:03:04;;;;;;;16.48;10.23;;;17.60;99.90;;;;;;4952039;28;20360;-68
2023/07/24 06:05:29;;;;;;;15.50;10.15;;;17.60;99.90;;;;;;4933409;28;20564;-67
2023/07/24 06:07:55;;;;;;;14.40;10.00;;;17.60;99.90;;;;;;4951538;28;20039;-69
2023/07/24 06:10:20;;;;;;;15.98;10.88;;;17.70;99.90;;;;;;4949837;28;20604;-68
2023/07/24 06:12:47;;;;;;;14.95;10.18;;;17.70;99.90;;;;;;4954519;28;20602;-68
2023/07/24 06:15:13;;;;;;;15.30;10.20;;;17.60;99.90;;;;;;4950975;28;20816;-68
2023/07/24 06:17:38;;;;;;;15.75;10.45;;;17.60;99.90;;;;;;4952687;28;20042;-70
2023/07/24 06:20:05;;;;;;;15.52;11.15;;;17.60;99.90;;;;;;4950292;28;20091;-67
2023/07/24 06:22:31;;;;;;;14.93;10.25;;;17.60;99.90;;;;;;4945194;28;20085;-69
2023/07/24 06:24:56;;;;;;;17.27;11.02;;;17.60;99.90;;;;;;4949343;28;20126;-68
2023/07/24 06:27:22;;;;;;;15.88;10.55;;;17.70;99.90;;;;;;4954287;28;20513;-68
2023/07/24 06:29:47;;;;;;;17.23;11.05;;;17.80;99.90;;;;;;4951218;28;20031;-68
2023/07/24 06:32:13;;;;;;;16.83;11.40;;;17.90;99.90;;;;;;4956998;28;20046;-68
2023/07/24 06:34:39;;;;;;;14.48;10.45;;;18.00;99.90;;;;;;4946518;28;20058;-67
2023/07/24 06:37:04;;;;;;;16.38;11.25;;;18.00;99.90;;;;;;4950575;28;20481;-68
2023/07/24 06:39:30;;;;;;;17.50;11.57;;;18.10;99.90;;;;;;4948763;28;20109;-68
2023/07/24 06:41:56;;;;;;;17.30;12.02;;;18.30;99.90;;;;;;4960379;28;20054;-67
2023/07/24 06:44:22;;;;;;;17.30;11.32;;;18.50;99.90;;;;;;4943453;28;20046;-68
2023/07/24 06:46:47;;;;;;;16.92;11.88;;;18.50;99.90;;;;;;4954535;28;20047;-68
2023/07/24 06:49:13;;;;;;;18.33;12.52;;;18.50;99.90;;;;;;4955821;28;20046;-68
2023/07/24 06:51:39;;;;;;;16.90;11.40;;;18.70;99.90;;;;;;4958957;28;20094;-67
2023/07/24 06:54:05;;;;;;;14.82;11.18;;;18.90;99.90;;;;;;4952789;28;20089;-67
2023/07/24 06:56:31;;;;;;;15.35;11.55;;;19.00;99.90;;;;;;4958026;28;20045;-67
2023/07/24 06:58:57;;;;;;;15.55;11.18;;;18.90;99.90;;;;;;4955009;28;20049;-68
2023/07/24 07:01:23;;;;;;;15.85;11.75;;;18.80;99.90;;;;;;4949629;28;20043;-67
2023/07/24 07:03:48;;;;;;;16.33;11.35;;;18.80;99.90;;;;;;4950401;28;20134;-69
2023/07/24 07:06:14;;;;;;;16.30;11.27;;;18.80;99.90;;;;;;4963596;28;20031;-68
2023/07/24 07:08:40;;;;;;;17.30;11.32;;;18.80;99.90;;;;;;4963912;28;20150;-68
2023/07/24 07:11:05;;;;;;;14.40;10.80;;;18.80;99.90;;;;;;4959594;28;20137;-68
2023/07/24 07:13:31;;;;;;;17.63;10.57;;;18.80;99.90;;;;;;4956859;28;20043;-70
2023/07/24 07:15:57;;;;;;;15.30;10.80;;;18.80;99.90;;;;;;4945415;28;20051;-66
2023/07/24 07:18:22;;;;;;;17.67;10.43;;;18.70;99.90;;;;;;4944842;28;20126;-72
2023/07/24 07:20:49;;;;;;;15.90;10.88;;;18.60;99.90;;;;;;4954793;28;20042;-67
2023/07/24 07:23:15;;;;;;;16.90;10.95;;;18.60;99.90;;;;;;4945895;28;20090;-66
2023/07/24 07:25:43;;;;;;;17.75;11.60;;;18.60;99.90;;;;;;4964183;28;20038;-66
2023/07/24 07:28:09;;;;;;;15.80;11.65;;;18.70;99.90;;;;;;4936908;28;20517;-67
2023/07/24 07:30:34;;;;;;;16.88;11.23;;;18.90;99.90;;;;;;4943884;28;20043;-71
2023/07/24 07:33:00;;;;;;;14.65;11.32;;;19.00;99.90;;;;;;4944132;28;20074;-68
2023/07/24 07:35:26;;;;;;;18.33;12.40;;;19.10;99.90;;;;;;4937385;28;20047;-69
2023/07/24 07:37:52;;;;;;;14.85;11.27;;;19.20;99.90;;;;;;4942404;28;20058;-71
2023/07/24 07:40:17;;;;;;;17.27;11.00;;;19.30;99.90;;;;;;4945210;28;20035;-65
2023/07/24 07:42:44;;;;;;;16.38;11.35;;;19.40;99.90;;;;;;4951253;28;20046;-72
2023/07/24 07:45:10;;;;;;;17.33;11.68;;;19.40;99.90;;;;;;4952673;28;20047;-66
2023/07/24 07:47:36;;;;;;;15.25;11.05;;;19.40;99.90;;;;;;4953224;28;20085;-67
2023/07/24 07:50:02;;;;;;;18.27;10.88;;;19.60;99.90;;;;;;4954220;28;20043;-67
2023/07/24 07:52:28;;;;;;;16.52;11.38;;;19.80;99.90;;;;;;4949627;28;20039;-66
2023/07/24 07:54:54;;;;;;;15.25;11.13;;;19.80;99.90;;;;;;4949003;28;20058;-69
2023/07/24 07:57:19;;;;;;;15.25;10.77;;;19.70;99.90;;;;;;4944869;28;20521;-66
2023/07/24 07:59:45;;;;;;;15.75;10.70;;;19.80;99.90;;;;;;4949779;29;20105;-68
2023/07/24 08:02:10;;;;;;;21.50;11.02;;;19.90;99.90;;;;;;4942905;28;20498;-69
2023/07/24 08:04:36;;;;;;;15.27;10.75;;;20.00;99.90;;;;;;4955369;28;20054;-71
2023/07/24 08:07:02;;;;;;;15.35;9.57;;;20.00;99.90;;;;;;4955370;28;20039;-69
2023/07/24 08:09:29;;;;;;;16.60;10.20;;;20.00;99.90;;;;;;4945415;28;20106;-70
2023/07/24 08:11:54;;;;;;;14.35;9.50;;;20.10;99.90;;;;;;4951755;28;20043;-69
2023/07/24 08:14:20;;;;;;;15.13;9.85;;;20.10;99.90;;;;;;4953420;28;20110;-69
2023/07/24 08:16:49;;;;;;;14.30;9.15;;;20.20;99.90;;;;;;4970635;28;20509;-70
2023/07/24 08:19:15;;;;;;;16.52;9.32;;;20.30;99.90;;;;;;4946123;28;20121;-67
2023/07/24 08:21:40;;;;;;;12.90;7.72;;;20.50;99.90;;;;;;4965746;28;20119;-68
2023/07/24 08:24:06;;;;;;;19.20;9.50;;;20.50;99.90;;;;;;4943828;28;20093;-67
2023/07/24 08:26:32;;;;;;;15.63;10.00;;;20.60;99.90;;;;;;4947889;28;20094;-69
2023/07/24 08:28:57;;;;;;;15.18;9.82;;;20.50;99.90;;;;;;4952302;28;20110;-67
2023/07/24 08:31:23;;;;;;;12.82;9.50;;;20.50;99.90;;;;;;4946745;29;20039;-68
2023/07/24 08:33:48;;;;;;;15.85;9.95;;;20.50;99.90;;;;;;4946551;29;20375;-69
2023/07/24 08:36:14;;;;;;;15.63;10.70;;;20.70;99.90;;;;;;4963087;28;20054;-69
2023/07/24 08:38:42;;;;;;;14.68;9.80;;;20.90;99.90;;;;;;4954504;28;20047;-69
2023/07/24 08:41:12;;;;;;;13.70;9.35;;;20.90;99.90;;;;;;4954588;28;20050;-66
2023/07/24 08:43:40;;;;;;;11.83;8.90;;;20.70;99.90;;;;;;4954015;28;20039;-67
2023/07/24 08:46:06;;;;;;;11.80;8.48;;;20.50;99.90;;;;;;4953275;28;20294;-68
2023/07/24 08:48:36;;;;;;;13.10;8.57;;;20.40;99.90;;;;;;4953333;28;20118;-67
2023/07/24 08:51:07;;;;;;;14.33;9.17;;;20.20;99.90;;;;;;4953101;29;20287;-67
2023/07/24 08:53:35;;;;;;;13.13;9.23;;;20.20;99.90;;;;;;4950481;28;20036;-72
2023/07/24 08:56:09;;;;;;;13.02;8.75;;;20.10;99.90;;;;;;4953728;28;20350;-67
2023/07/24 08:58:36;;;;;;;13.10;8.95;;;20.10;99.90;;;;;;4939274;28;20216;-69
2023/07/24 09:01:03;;;;;;;13.27;9.00;;;20.20;99.90;;;;;;4965735;28;20060;-68
2023/07/24 09:03:30;;;;;;;12.90;9.02;;;20.40;99.90;;;;;;4951800;28;20133;-70
2023/07/24 09:05:56;;;;;;;14.30;9.27;;;20.60;99.90;;;;;;4971584;28;20042;-66
2023/07/24 09:08:33;;;;;;;12.13;8.23;;;20.80;99.90;;;;;;4958651;28;20403;-66
2023/07/24 09:10:59;;;;;;;15.25;9.13;;;21.00;99.90;;;;;;4954029;28;20057;-66
2023/07/24 09:13:25;;;;;;;12.13;9.00;;;21.20;99.90;;;;;;4973252;28;20038;-67
2023/07/24 09:15:51;;;;;;;13.75;8.50;;;21.30;99.90;;;;;;4957255;28;20082;-68
2023/07/24 09:18:18;;;;;;;13.38;8.40;;;21.30;99.90;;;;;;4956543;28;20135;-68
2023/07/24 09:20:44;;;;;;;14.20;8.90;;;21.30;99.90;;;;;;4962959;28;20075;-68
2023/07/24 09:23:11;;;;;;;13.50;8.13;;;21.40;99.90;;;;;;4954293;28;20043;-68
2023/07/24 09:25:38;;;;;;;10.15;7.63;;;21.50;99.90;;;;;;4959791;28;20043;-68
2023/07/24 09:28:11;;;;;;;13.35;8.10;;;21.60;99.90;;;;;;4944414;28;20102;-68
2023/07/24 09:30:38;;;;;;;10.80;8.27;;;21.60;99.90;;;;;;4966013;28;20043;-68
2023/07/24 09:33:04;;;;;;;12.38;8.30;;;21.70;99.90;;;;;;4956740;28;20110;-68
2023/07/24 09:35:30;;;;;;;10.30;7.60;;;21.70;99.90;;;;;;4953775;28;20439;-68
2023/07/24 09:38:06;;;;;;;13.40;7.60;;;21.60;99.90;;;;;;4952739;28;20049;-68
2023/07/24 09:40:42;;;;;;;12.98;8.13;;;21.40;99.90;;;;;;4951054;28;20043;-67
2023/07/24 09:43:20;;;;;;;14.00;8.20;;;21.20;99.90;;;;;;4961248;28;20035;-67
2023/07/24 09:45:49;;;;;;;10.38;7.75;;;21.00;99.90;;;;;;4950172;28;20039;-68
2023/07/24 09:48:17;;;;;;;15.40;8.25;;;21.10;99.90;;;;;;4949758;28;20090;-67
2023/07/24 09:50:45;;;;;;;13.35;7.90;;;21.30;99.90;;;;;;4956449;28;20667;-67
2023/07/24 09:53:18;;;;;;;14.07;7.90;;;21.70;99.90;;;;;;4950395;28;20090;-68
2023/07/24 09:55:55;;;;;;;11.63;8.00;;;22.00;99.90;;;;;;4950341;28;20078;-68
2023/07/24 09:58:22;;;;;;;10.63;7.35;;;22.10;99.90;;;;;;4958197;28;20039;-68
2023/07/24 10:00:48;;;;;;;10.95;7.75;;;22.10;99.90;;;;;;4953414;28;20106;-68
2023/07/24 10:03:15;;;;;;;11.15;8.23;;;21.90;99.90;;;;;;4953665;28;20406;-69
2023/07/24 10:05:43;;;;;;;12.93;8.80;;;21.80;99.90;;;;;;4953538;28;20050;-69
2023/07/24 10:08:14;;;;;;;12.98;8.68;;;21.60;99.90;;;;;;4963113;28;20431;-67
2023/07/24 10:10:40;;;;;;;11.55;8.90;;;21.60;99.90;;;;;;4951870;28;20043;-68
2023/07/24 10:13:06;;;;;;;13.98;8.77;;;21.60;99.90;;;;;;4952470;28;20039;-68
2023/07/24 10:15:32;;;;;;;10.93;8.55;;;21.70;99.90;;;;;;4953238;29;20035;-68
2023/07/24 10:18:06;;;;;;;13.27;8.75;;;21.90;99.90;;;;;;4962919;28;20039;-69
2023/07/24 10:20:39;;;;;;;11.85;8.77;;;22.10;99.90;;;;;;4953000;28;20039;-68
2023/07/24 10:23:06;;;;;;;11.90;8.48;;;22.40;99.90;;;;;;4951390;28;20047;-69
2023/07/24 10:25:34;;;;;;;11.00;7.70;;;22.60;99.90;;;;;;4952723;28;20035;-65
2023/07/24 10:28:11;;;;;;;11.00;7.57;;;22.80;99.90;;;;;;4941276;28;20530;-67
2023/07/24 10:30:37;;;;;;;10.10;7.60;;;22.90;99.90;;;;;;4952261;28;20610;-66
2023/07/24 10:33:05;;;;;;;10.18;6.95;;;22.80;99.90;;;;;;4952797;28;20039;-66
2023/07/24 10:36:00;;;;;;;12.02;7.70;;;22.80;99.90;;;;;;4953424;28;20046;-66
2023/07/24 10:38:34;;;;;;;11.48;7.75;;;22.70;99.90;;;;;;4955628;28;20051;-66
2023/07/24 10:41:05;;;;;;;11.55;7.45;;;22.60;99.90;;;;;;4951469;28;20051;-66
2023/07/24 10:44:00;;;;;;;10.38;7.65;;;22.40;99.90;;;;;;4952219;28;20422;-67
2023/07/24 10:46:36;;;;;;;9.15;7.47;;;22.50;99.90;;;;;;4940874;28;20104;-66
2023/07/24 10:49:02;;;;;;;10.25;7.72;;;22.70;99.90;;;;;;4954364;28;20043;-66
2023/07/24 10:51:29;;;;;;;10.75;7.55;;;22.80;99.90;;;;;;4953226;28;20458;-66
2023/07/24 10:53:55;;;;;;;12.15;7.57;;;22.90;99.90;;;;;;4949972;28;20039;-66
2023/07/24 10:56:21;;;;;;;10.48;6.90;;;23.10;99.90;;;;;;4950288;28;20408;-65
2023/07/24 10:58:46;;;;;;;10.75;6.30;;;23.20;99.90;;;;;;4952472;28;20048;-64
2023/07/24 11:01:13;;;;;;;9.23;6.43;;;23.40;99.90;;;;;;4965336;28;20690;-66
2023/07/24 11:03:42;;;;;;;11.40;6.30;;;23.80;99.90;;;;;;4970449;28;20051;-61
2023/07/24 11:06:18;;;;;;;10.45;6.65;;;23.90;99.90;;;;;;4961995;28;20043;-67
2023/07/24 11:08:58;;;;;;;9.32;6.53;;;23.90;99.90;;;;;;4960900;28;20070;-67
2023/07/24 11:11:33;;;;;;;7.83;5.83;;;23.70;99.90;;;;;;4958845;28;20031;-67
2023/07/24 11:14:01;;;;;;;10.13;6.03;;;23.50;99.90;;;;;;4962663;28;20278;-64
2023/07/24 11:16:27;;;;;;;8.65;5.57;;;23.30;99.90;;;;;;4969520;28;20079;-66
2023/07/24 11:18:53;;;;;;;9.98;6.13;;;23.20;99.90;;;;;;4956134;29;20075;-64
2023/07/24 11:21:19;;;;;;;9.60;6.28;;;23.20;99.90;;;;;;4957331;28;20043;-66
2023/07/24 11:23:50;;;;;;;10.80;6.10;;;23.30;99.90;;;;;;4961746;28;20038;-66
2023/07/24 11:26:18;;;;;;;;;;;23.40;99.90;;;;;;4958853;28;20390;-67
2023/07/24 11:28:44;;;;;;;9.40;5.88;;;23.40;99.90;;;;;;4953182;28;19934;-63
2023/07/24 11:31:09;;;;;;;9.70;6.10;;;23.20;99.90;;;;;;4955039;28;20039;-62
2023/07/24 11:36:07;;;;;;;8.00;5.90;;;23.00;99.90;;;;;;5030556;28;20045;-62
2023/07/24 11:38:33;;;;;;;7.93;5.63;;;23.00;99.90;;;;;;5024411;28;20385;-64
2023/07/24 11:40:59;;;;;;;8.95;5.95;;;22.90;99.90;;;;;;5013707;28;20103;-65
2023/07/24 11:43:25;;;;;;;7.97;5.85;;;22.80;99.90;;;;;;5014105;28;20034;-64
2023/07/24 11:45:53;;;;;;;9.27;5.82;;;22.70;99.90;;;;;;5002063;28;20097;-64
2023/07/24 11:48:20;;;;;;;7.75;5.93;;;22.70;99.90;;;;;;5006895;28;20543;-65
2023/07/24 11:50:54;;;;;;;10.68;6.68;;;22.60;99.90;;;;;;5008020;28;20093;-64
2023/07/24 11:53:28;;;;;;;9.15;6.30;;;22.80;99.90;;;;;;5005386;28;20046;-64
2023/07/24 11:55:55;;;;;;;11.98;6.00;;;23.10;99.90;;;;;;4996695;28;20049;-65
2023/07/24 11:58:21;;;;;;;8.48;6.35;;;23.20;99.90;;;;;;4999015;28;20495;-65
2023/07/24 12:00:48;;;;;;;9.15;5.95;;;23.20;99.90;;;;;;5003328;28;20129;-64
2023/07/24 12:03:25;;;;;;;10.68;6.80;;;23.10;99.90;;;;;;4997373;28;20029;-65
2023/07/24 12:05:50;;;;;;;8.68;6.50;;;23.00;99.90;;;;;;5011110;28;20344;-65
2023/07/24 12:08:20;;;;;;;10.27;6.43;;;22.90;99.90;;;;;;4991381;28;20102;-67
2023/07/24 12:10:46;;;;;;;9.93;6.20;;;22.70;99.90;;;;;;5003275;28;20496;-66
2023/07/24 12:13:12;;;;;;;10.00;6.20;;;22.50;99.90;;;;;;5004163;28;20109;-65
2023/07/24 12:15:38;;;;;;;7.72;5.55;;;22.50;99.90;;;;;;5002839;28;20045;-65
2023/07/24 12:18:04;;;;;;;9.23;6.03;;;22.60;99.90;;;;;;4995793;28;20134;-65
2023/07/24 12:20:31;;;;;;;10.68;6.20;;;22.60;99.90;;;;;;4969352;28;20286;-64
2023/07/24 12:22:57;;;;;;;11.98;6.50;;;22.50;99.90;;;;;;4995456;28;20405;-64
2023/07/24 12:25:23;;;;;;;10.00;6.60;;;22.60;99.90;;;;;;4995970;28;20046;-63
2023/07/24 12:27:49;;;;;;;9.65;6.20;;;22.70;99.90;;;;;;4982649;28;20050;-62
2023/07/24 12:30:15;;;;;;;11.10;6.97;;;22.70;99.90;;;;;;5004738;28;20057;-63
2023/07/24 12:32:40;;;;;;;10.48;6.45;;;22.70;99.90;;;;;;5007899;28;20496;-63
2023/07/24 12:35:08;;;;;;;12.50;7.40;;;22.70;99.90;;;;;;5005624;28;20063;-65
2023/07/24 12:37:34;;;;;;;12.70;7.72;;;22.80;99.90;;;;;;5009852;28;20044;-64